Time;durP1;ratioP1;P1;durP2;ratioP2;P2;SDS_P1;SDS_P2;PMS_P1;PMS_P2;Temp;Humidity;BMP_temperature;BMP_pressure;BME280_temperature;BME280_humidity;BME280_pressure;Samples;Min_cycle;Max_cycle;Signal;HPM_P1;HPM_P2
2022/09/04 00:02:19;;;;;;;0.80;0.60;;;18.90;59.80;20.90;93986.00;;;;10430498;28;46109;-57
2022/09/04 00:07:57;;;;;;;0.93;0.50;;;18.90;59.70;20.90;93988.00;;;;10447490;28;45214;-56
2022/09/04 00:13:25;;;;;;;0.70;0.60;;;18.90;59.80;20.90;93984.00;;;;10472013;28;45411;-56
2022/09/04 00:18:54;;;;;;;0.57;0.47;;;18.90;59.70;20.90;93976.00;;;;10457560;28;45699;-56
2022/09/04 00:24:18;;;;;;;0.82;0.32;;;18.90;59.70;20.90;93990.00;;;;10429313;28;45282;-58
2022/09/04 00:29:48;;;;;;;0.50;0.40;;;18.90;59.70;20.90;93983.00;;;;10429817;28;45178;-57
2022/09/04 00:35:15;;;;;;;0.60;0.60;;;18.80;59.70;20.90;93988.00;;;;10460739;28;45165;-58
2022/09/04 00:40:43;;;;;;;0.68;0.52;;;18.90;59.70;20.90;93994.00;;;;10471214;28;45261;-57
2022/09/04 00:46:52;;;;;;;0.65;0.50;;;18.90;59.70;20.90;93995.00;;;;10470494;28;45870;-57
2022/09/04 00:52:30;;;;;;;0.50;0.40;;;18.90;59.70;20.90;93990.00;;;;10428784;28;45226;-58
2022/09/04 00:58:26;;;;;;;0.52;0.50;;;18.90;59.80;20.90;94000.00;;;;10427101;28;45259;-58
2022/09/04 01:04:07;;;;;;;1.13;0.60;;;18.80;59.70;20.90;93998.00;;;;10423688;28;45202;-58
2022/09/04 01:09:48;;;;;;;0.57;0.50;;;18.80;59.70;20.90;94004.00;;;;10459784;28;45289;-57
2022/09/04 01:15:18;;;;;;;1.63;0.65;;;18.80;59.70;20.90;93986.00;;;;10469156;28;45479;-58
2022/09/04 01:21:17;;;;;;;1.35;0.70;;;18.80;59.60;20.90;93998.00;;;;10445031;28;45810;-58
2022/09/04 01:26:49;;;;;;;0.85;0.57;;;18.80;59.60;20.90;94004.00;;;;10427433;28;46146;-57
2022/09/04 01:32:21;;;;;;;0.68;0.60;;;18.80;59.60;20.90;93998.00;;;;10427685;28;45806;-58
2022/09/04 01:37:55;;;;;;;0.75;0.55;;;18.80;59.60;20.90;93981.00;;;;10428053;28;45936;-56
2022/09/04 01:43:20;;;;;;;0.75;0.50;;;18.80;59.70;20.90;93996.00;;;;10459049;28;45754;-57
2022/09/04 01:48:49;;;;;;;1.38;0.60;;;18.80;59.60;20.90;93984.00;;;;10446849;28;45090;-57
2022/09/04 01:54:25;;;;;;;0.93;0.63;;;18.80;59.70;20.90;93997.00;;;;10427878;28;45850;-58
2022/09/04 02:00:02;;;;;;;0.73;0.63;;;18.80;59.60;20.90;93996.00;;;;10459989;28;45270;-57
2022/09/04 02:05:30;;;;;;;;;;;18.80;59.70;20.90;94000.00;;;;10471396;28;45226;-58
2022/09/04 02:10:57;;;;;;;0.82;0.47;;;18.80;59.70;20.90;94012.00;;;;10474935;28;45469;-57
2022/09/04 02:16:29;;;;;;;;;;;18.80;59.60;20.90;94008.00;;;;10467050;28;45158;-57
2022/09/04 02:22:01;;;;;;;0.88;0.60;;;18.80;59.60;20.80;94005.00;;;;10446212;28;45322;-57
2022/09/04 02:27:32;;;;;;;0.63;0.55;;;18.80;59.60;20.90;94011.00;;;;10433871;28;45703;-58
2022/09/04 02:33:05;;;;;;;0.70;0.70;;;18.80;59.70;20.90;94012.00;;;;10433454;28;45228;-57
2022/09/04 02:38:35;;;;;;;0.88;0.60;;;18.80;59.70;20.90;94008.00;;;;10463473;28;45178;-58
2022/09/04 02:44:13;;;;;;;1.02;0.70;;;18.80;59.60;20.90;93994.00;;;;10475026;28;45293;-58
2022/09/04 02:49:48;;;;;;;0.60;0.60;;;18.80;59.70;20.80;94016.00;;;;10445243;28;45172;-58
2022/09/04 02:55:23;;;;;;;1.13;0.60;;;18.80;59.60;20.90;94000.00;;;;10432617;28;45719;-58
2022/09/04 03:00:54;;;;;;;0.40;0.40;;;18.80;59.60;20.90;94021.00;;;;10432513;28;45861;-58
2022/09/04 03:06:23;;;;;;;0.55;0.38;;;18.80;59.60;20.90;94018.00;;;;10432581;28;45264;-58
2022/09/04 03:11:50;;;;;;;0.63;0.50;;;18.80;59.60;20.80;94017.00;;;;10432343;28;45135;-56
2022/09/04 03:17:18;;;;;;;0.90;0.60;;;18.80;59.60;20.80;94019.00;;;;10449955;28;45175;-58
2022/09/04 03:22:49;;;;;;;1.00;0.60;;;18.80;59.60;20.80;94019.00;;;;10431705;28;45123;-58
2022/09/04 03:28:20;;;;;;;0.80;0.60;;;18.80;59.60;20.80;94022.00;;;;10431230;28;45711;-58
2022/09/04 03:33:51;;;;;;;0.60;0.60;;;18.80;59.50;20.80;94033.00;;;;10463311;28;45743;-56
2022/09/04 03:39:25;;;;;;;0.70;0.70;;;18.80;59.60;20.80;94021.00;;;;10472861;28;45162;-56
2022/09/04 03:44:57;;;;;;;1.17;0.50;;;18.80;59.60;20.80;94036.00;;;;10431522;28;45413;-59
2022/09/04 03:50:29;;;;;;;0.57;0.57;;;18.80;59.60;20.80;94042.00;;;;10433254;28;45223;-57
2022/09/04 03:56:17;;;;;;;0.57;0.50;;;18.80;59.50;20.80;94051.00;;;;10430698;28;45237;-57
2022/09/04 04:01:49;;;;;;;0.40;0.40;;;18.80;59.50;20.80;94053.00;;;;10430453;28;45209;-57
2022/09/04 04:07:23;;;;;;;0.40;0.40;;;18.80;59.60;20.80;94042.00;;;;10429045;28;45218;-57
2022/09/04 04:13:11;;;;;;;0.50;0.50;;;18.80;59.50;20.80;94043.00;;;;10463598;28;45068;-58
2022/09/04 04:19:02;;;;;;;0.70;0.40;;;18.80;59.50;20.80;94055.00;;;;10460598;28;45534;-58
2022/09/04 04:24:46;;;;;;;0.63;0.60;;;18.80;59.50;20.80;94068.00;;;;10429447;28;45676;-56
2022/09/04 04:30:11;;;;;;;0.70;0.60;;;18.80;59.50;20.80;94077.00;;;;10457688;28;45246;-58
2022/09/04 04:35:43;;;;;;;0.50;0.50;;;18.80;59.50;20.80;94083.00;;;;10471278;28;45179;-57
2022/09/04 04:41:30;;;;;;;0.52;0.50;;;18.80;59.50;20.80;94083.00;;;;10470977;28;46106;-57
2022/09/04 04:47:08;;;;;;;0.57;0.47;;;18.80;59.50;20.80;94099.00;;;;10464562;28;45174;-58
2022/09/04 04:52:44;;;;;;;0.82;0.60;;;18.70;59.40;20.80;94098.00;;;;10428757;28;45653;-57
2022/09/04 04:58:32;;;;;;;0.80;0.57;;;18.80;59.40;20.80;94103.00;;;;10445324;28;45407;-56
2022/09/04 05:04:11;;;;;;;0.60;0.50;;;18.80;59.50;20.80;94099.00;;;;10428781;28;45226;-57
2022/09/04 05:09:40;;;;;;;0.60;0.60;;;18.70;59.40;20.80;94118.00;;;;10460249;28;45885;-56
2022/09/04 05:15:11;;;;;;;1.08;0.50;;;18.80;59.40;20.80;94130.00;;;;10469686;28;45173;-58
2022/09/04 05:20:44;;;;;;;0.70;0.60;;;18.80;59.40;20.80;94138.00;;;;10469978;28;45349;-56
2022/09/04 05:26:12;;;;;;;1.02;0.50;;;18.70;59.40;20.80;94129.00;;;;10470114;28;45430;-58
2022/09/04 05:31:44;;;;;;;0.70;0.52;;;18.70;59.30;20.80;94138.00;;;;10469058;28;45485;-57
2022/09/04 05:37:15;;;;;;;0.57;0.45;;;18.70;59.30;20.80;94139.00;;;;10468836;28;45874;-58
2022/09/04 05:42:53;;;;;;;0.60;0.55;;;18.80;59.40;20.80;94126.00;;;;10480957;28;45746;-57
2022/09/04 05:48:22;;;;;;;0.55;0.50;;;18.70;59.30;20.80;94144.00;;;;10454825;28;45210;-57
2022/09/04 05:54:21;;;;;;;0.70;0.60;;;18.70;59.30;20.80;94155.00;;;;10440640;28;46628;-56
2022/09/04 06:00:02;;;;;;;1.70;0.75;;;18.80;59.40;20.80;94157.00;;;;10457109;28;45898;-56
2022/09/04 06:05:32;;;;;;;1.38;0.60;;;18.80;59.30;20.80;94162.00;;;;10441196;28;45330;-58
2022/09/04 06:11:19;;;;;;;0.40;0.40;;;18.70;59.30;20.80;94163.00;;;;10470913;28;45163;-58
2022/09/04 06:17:05;;;;;;;1.37;0.77;;;18.80;59.40;20.80;94164.00;;;;10481990;28;45241;-56
2022/09/04 06:22:54;;;;;;;1.40;0.60;;;18.70;59.30;20.80;94183.00;;;;10481912;28;45129;-58
2022/09/04 06:29:00;;;;;;;1.10;0.65;;;18.70;59.30;20.80;94177.00;;;;10482754;28;45229;-58
2022/09/04 06:34:36;;;;;;;0.90;0.70;;;18.80;59.40;20.80;94190.00;;;;10433325;28;45289;-57
2022/09/04 06:40:18;;;;;;;0.60;0.50;;;18.80;59.40;20.80;94195.00;;;;10482142;28;45212;-58
2022/09/04 06:45:52;;;;;;;0.88;0.50;;;18.80;59.40;20.80;94189.00;;;;10472988;28;45210;-56
2022/09/04 06:51:29;;;;;;;0.75;0.60;;;18.70;59.40;20.80;94201.00;;;;10435998;28;45278;-57
2022/09/04 06:57:11;;;;;;;0.90;0.60;;;18.80;59.50;20.80;94195.00;;;;10458322;28;45201;-57
2022/09/04 07:03:12;;;;;;;0.82;0.50;;;18.70;59.40;20.80;94203.00;;;;10433432;28;45750;-57
2022/09/04 07:08:47;;;;;;;1.63;0.50;;;18.80;59.50;20.80;94214.00;;;;10416502;28;45868;-56
2022/09/04 07:14:28;;;;;;;0.65;0.50;;;18.80;59.50;20.80;94214.00;;;;10459676;28;45874;-58
2022/09/04 07:20:17;;;;;;;1.33;0.60;;;18.80;59.50;20.80;94214.00;;;;10432254;28;45271;-58
2022/09/04 07:25:44;;;;;;;0.47;0.47;;;18.80;59.50;20.80;94234.00;;;;10431870;28;45715;-57
2022/09/04 07:31:11;;;;;;;1.00;0.47;;;18.80;59.50;20.80;94234.00;;;;10448333;28;45225;-60
2022/09/04 07:36:42;;;;;;;0.75;0.50;;;18.80;59.50;20.80;94233.00;;;;10459096;28;45460;-57
2022/09/04 07:42:11;;;;;;;1.13;0.50;;;18.80;59.50;20.80;94238.00;;;;10452090;28;45878;-57
2022/09/04 07:47:36;;;;;;;0.50;0.43;;;18.80;59.60;20.80;94248.00;;;;10460655;28;45773;-56
2022/09/04 07:53:17;;;;;;;0.80;0.63;;;18.70;59.50;20.80;94244.00;;;;10461819;28;45197;-57
2022/09/04 07:59:21;;;;;;;0.95;0.70;;;18.80;59.50;20.80;94240.00;;;;10457121;28;45159;-56
2022/09/04 08:05:07;;;;;;;1.15;0.80;;;18.70;59.50;20.80;94240.00;;;;10464663;28;45393;-58
2022/09/04 08:10:34;;;;;;;1.00;0.90;;;18.70;59.80;20.80;94260.00;;;;10471395;28;45499;-58
2022/09/04 08:16:07;;;;;;;1.60;1.08;;;18.80;60.00;20.80;94241.00;;;;10472257;28;45773;-58
2022/09/04 08:21:30;;;;;;;1.88;1.15;;;18.80;60.00;20.80;94263.00;;;;10456159;28;45469;-56
2022/09/04 08:27:08;;;;;;;3.40;1.30;;;18.80;60.10;20.80;94268.00;;;;10431183;28;45243;-58
2022/09/04 08:33:09;;;;;;;;;;;18.80;60.00;20.90;94275.00;;;;10469952;28;45627;-57
2022/09/04 08:38:46;;;;;;;4.53;1.98;;;18.80;60.40;20.80;94276.00;;;;10461280;28;45563;-57
2022/09/04 08:45:17;;;;;;;2.70;1.73;;;18.80;60.60;20.90;94285.00;;;;10470821;28;45524;-57
2022/09/04 08:51:41;;;;;;;3.92;2.30;;;18.80;60.90;20.90;94289.00;;;;10432376;28;45777;-58
2022/09/04 08:57:37;;;;;;;3.72;2.00;;;18.80;61.00;20.90;94289.00;;;;10369594;28;45832;-57
2022/09/04 09:03:46;;;;;;;3.20;1.90;;;18.80;61.00;20.90;94275.00;;;;10429579;28;45281;-57
2022/09/04 09:09:55;;;;;;;4.22;1.80;;;18.80;61.20;20.90;94287.00;;;;10459031;28;45716;-57
2022/09/04 09:15:58;;;;;;;4.05;2.35;;;18.80;61.50;21.00;94286.00;;;;10453294;28;45145;-57
2022/09/04 09:21:40;;;;;;;4.60;2.70;;;18.90;62.00;20.90;94293.00;;;;10462664;28;45223;-57
2022/09/04 09:27:30;;;;;;;4.60;2.65;;;18.80;63.40;20.90;94296.00;;;;10470825;28;45822;-57
2022/09/04 09:33:57;;;;;;;5.13;2.70;;;18.90;63.50;20.90;94283.00;;;;10470414;28;45162;-56
2022/09/04 09:39:43;;;;;;;4.90;2.50;;;18.80;64.00;20.90;94286.00;;;;10362347;28;45794;-58
2022/09/04 09:45:35;;;;;;;4.30;2.55;;;18.80;64.40;20.90;94284.00;;;;10426704;28;45263;-59
2022/09/04 09:51:56;;;;;;;4.47;2.67;;;18.80;64.80;20.90;94286.00;;;;10468068;28;45226;-57
2022/09/04 09:57:50;;;;;;;4.03;2.30;;;18.90;64.80;20.90;94281.00;;;;10460375;28;45142;-57
2022/09/04 10:03:48;;;;;;;4.30;2.38;;;18.80;64.90;20.90;94271.00;;;;10434803;28;45374;-60
2022/09/04 10:09:51;;;;;;;4.18;2.28;;;18.80;64.70;20.90;94287.00;;;;10457649;28;45443;-60
2022/09/04 10:15:58;;;;;;;3.05;1.90;;;18.90;64.90;20.90;94289.00;;;;10468067;28;45683;-56
2022/09/04 10:21:50;;;;;;;3.07;1.83;;;18.90;65.40;20.90;94285.00;;;;10469331;28;45837;-59
2022/09/04 10:28:00;;;;;;;3.38;2.00;;;18.90;64.70;20.90;94276.00;;;;10469921;28;45226;-58
2022/09/04 10:33:33;;;;;;;2.88;1.60;;;18.90;64.60;20.90;94270.00;;;;10420978;28;45257;-59
2022/09/04 10:45:17;;;;;;;3.50;1.90;;;18.90;64.50;21.00;94283.00;;;;10432329;28;45863;-57
2022/09/04 10:51:35;;;;;;;2.20;1.42;;;18.90;64.40;21.00;94273.00;;;;10433036;28;45185;-57
2022/09/04 10:57:03;;;;;;;;;;;18.90;64.10;21.00;94271.00;;;;10443958;28;45938;-58
2022/09/04 11:03:01;;;;;;;2.00;1.33;;;18.90;64.10;21.00;94258.00;;;;10452179;28;45255;-58
2022/09/04 11:08:50;;;;;;;3.38;1.52;;;18.90;63.80;21.00;94270.00;;;;10432323;28;45277;-56
2022/09/04 11:14:52;;;;;;;3.33;1.38;;;18.90;63.60;20.90;94275.00;;;;10416532;28;45523;-57
2022/09/04 11:21:16;;;;;;;2.58;1.55;;;18.90;63.50;21.00;94274.00;;;;10429500;28;45332;-57
2022/09/04 11:27:20;;;;;;;2.25;1.10;;;18.90;63.40;21.00;94259.00;;;;10431340;28;45166;-56
2022/09/04 11:33:23;;;;;;;3.25;1.42;;;19.00;63.00;21.00;94266.00;;;;10467702;28;45243;-56
2022/09/04 11:39:43;;;;;;;3.33;1.27;;;18.90;62.90;21.00;94264.00;;;;10464523;28;46573;-59
2022/09/04 11:45:41;;;;;;;1.67;1.08;;;19.00;62.90;21.00;94262.00;;;;10430718;28;45146;-56
2022/09/04 11:51:27;;;;;;;1.67;1.00;;;19.00;62.80;21.00;94269.00;;;;10430853;28;45861;-56
2022/09/04 11:57:13;;;;;;;2.08;1.30;;;19.00;62.60;21.10;94273.00;;;;10432214;28;45169;-56
2022/09/04 12:03:31;;;;;;;2.33;1.10;;;19.00;62.60;21.10;94251.00;;;;10468275;28;45202;-59
2022/09/04 12:09:22;;;;;;;;;;;19.00;62.60;21.10;94281.00;;;;10462637;28;45197;-59
2022/09/04 12:15:10;;;;;;;2.70;1.17;;;19.00;62.40;21.10;94259.00;;;;10432290;28;45440;-59
2022/09/04 12:21:07;;;;;;;1.85;1.30;;;19.00;62.40;21.10;94260.00;;;;10433075;28;45603;-57
2022/09/04 12:27:02;;;;;;;1.30;0.98;;;19.00;62.40;21.10;94266.00;;;;10430149;28;45771;-58
2022/09/04 12:33:10;;;;;;;1.98;1.25;;;19.00;62.30;21.10;94261.00;;;;10464332;28;45765;-58
2022/09/04 12:39:14;;;;;;;2.05;1.10;;;19.00;62.20;21.10;94257.00;;;;10341703;28;45231;-57
2022/09/04 12:44:49;;;;;;;1.52;1.05;;;19.00;62.10;21.10;94272.00;;;;10444884;28;45356;-57
2022/09/04 12:50:27;;;;;;;1.80;1.20;;;19.00;62.00;21.10;94264.00;;;;10434364;28;45342;-58
2022/09/04 12:56:04;;;;;;;1.55;0.90;;;19.00;61.90;21.10;94270.00;;;;10428955;28;45794;-58
2022/09/04 13:01:34;;;;;;;;;;;19.10;62.00;21.10;94241.00;;;;10449834;28;45168;-58
2022/09/04 13:07:13;;;;;;;1.38;0.93;;;19.10;61.90;21.20;94266.00;;;;10428573;28;45859;-58
2022/09/04 13:12:46;;;;;;;1.70;1.10;;;19.10;61.80;21.20;94252.00;;;;10459675;28;45213;-58
2022/09/04 13:18:23;;;;;;;1.83;1.00;;;19.10;61.70;21.20;94262.00;;;;10470269;28;45805;-58
2022/09/04 13:24:05;;;;;;;1.75;1.00;;;19.10;61.60;21.20;94254.00;;;;10469632;28;45355;-58
2022/09/04 13:29:40;;;;;;;1.50;1.02;;;19.10;61.40;21.20;94251.00;;;;10469991;28;46101;-57
2022/09/04 13:35:14;;;;;;;2.75;1.30;;;19.10;61.60;21.20;94261.00;;;;10455622;28;45427;-58
2022/09/04 13:41:09;;;;;;;1.63;1.10;;;19.20;61.70;21.30;94267.00;;;;10427973;28;45822;-58
2022/09/04 13:46:37;;;;;;;1.80;1.00;;;19.20;61.60;21.30;94263.00;;;;10452732;28;45275;-58
2022/09/04 13:52:06;;;;;;;1.90;1.10;;;19.20;61.50;21.30;94261.00;;;;10426969;28;45201;-58
2022/09/04 13:57:30;;;;;;;2.33;1.20;;;19.30;61.30;21.30;94256.00;;;;10429563;28;45380;-58
2022/09/04 14:03:00;;;;;;;2.03;1.00;;;19.30;61.30;21.30;94252.00;;;;10452787;28;45199;-58
2022/09/04 14:08:22;;;;;;;3.03;1.10;;;19.30;61.20;21.40;94252.00;;;;10439088;28;45225;-57
2022/09/04 14:14:15;;;;;;;10.00;1.05;;;19.30;61.00;21.40;94259.00;;;;10434995;28;45166;-58
2022/09/04 14:19:51;;;;;;;1.27;0.82;;;19.30;61.00;21.40;94250.00;;;;10452908;28;45216;-58
2022/09/04 14:25:19;;;;;;;1.70;0.98;;;19.30;61.00;21.40;94257.00;;;;10433815;28;45859;-58
2022/09/04 14:30:56;;;;;;;2.22;0.90;;;19.30;61.00;21.40;94257.00;;;;10436130;28;45197;-57
2022/09/04 14:36:34;;;;;;;1.05;0.75;;;19.30;61.50;21.50;94249.00;;;;10432880;28;45672;-57
2022/09/04 14:42:21;;;;;;;1.15;0.77;;;19.40;59.80;21.40;94252.00;;;;10452705;28;45448;-58
2022/09/04 14:47:46;;;;;;;1.38;0.90;;;19.40;59.80;21.40;94246.00;;;;10458717;28;45221;-57
2022/09/04 14:53:09;;;;;;;2.03;0.95;;;19.40;60.20;21.50;94235.00;;;;10432657;28;45156;-58
2022/09/04 14:58:34;;;;;;;2.00;0.95;;;19.40;59.50;21.40;94240.00;;;;10436775;28;45257;-58
2022/09/04 15:04:01;;;;;;;1.00;0.75;;;19.40;59.70;21.50;94241.00;;;;10445810;28;45860;-58
2022/09/04 15:09:30;;;;;;;1.42;0.75;;;19.40;59.80;21.50;94258.00;;;;10464627;28;45780;-58
2022/09/04 15:14:57;;;;;;;1.40;0.77;;;19.40;59.80;21.50;94256.00;;;;10473964;28;45370;-57
2022/09/04 15:20:22;;;;;;;1.67;0.82;;;19.40;59.60;21.50;94223.00;;;;10474149;28;45195;-57
2022/09/04 15:25:50;;;;;;;0.98;0.80;;;19.40;59.60;21.50;94246.00;;;;10473311;28;45217;-58
2022/09/04 15:31:16;;;;;;;1.58;0.98;;;19.40;59.40;21.50;94247.00;;;;10473888;28;45155;-57
2022/09/04 15:36:38;;;;;;;1.55;0.95;;;19.50;59.40;21.60;94227.00;;;;10465290;28;45178;-57
2022/09/04 15:41:59;;;;;;;1.65;0.90;;;19.50;59.20;21.60;94230.00;;;;10472484;28;45281;-57
2022/09/04 15:47:42;;;;;;;1.13;0.80;;;19.60;59.10;21.60;94246.00;;;;10460594;28;45690;-57
2022/09/04 15:53:20;;;;;;;1.10;0.77;;;19.50;58.90;21.60;94234.00;;;;10462621;28;45854;-57
2022/09/04 15:58:51;;;;;;;1.60;0.90;;;19.50;58.90;21.60;94233.00;;;;10471151;28;45249;-57
2022/09/04 16:04:25;;;;;;;1.85;1.00;;;19.60;58.70;21.60;94226.00;;;;10453146;28;46205;-58
2022/09/04 16:09:50;;;;;;;1.25;0.80;;;19.60;58.50;21.70;94227.00;;;;10439165;28;45250;-56
2022/09/04 16:15:20;;;;;;;1.58;0.80;;;19.60;58.40;21.70;94229.00;;;;10433456;28;45223;-58
2022/09/04 16:20:50;;;;;;;1.13;0.80;;;19.70;58.40;21.70;94220.00;;;;10436204;28;45207;-57
2022/09/04 16:26:14;;;;;;;1.55;0.90;;;19.70;58.40;21.70;94228.00;;;;10446593;28;45221;-58
2022/09/04 16:31:38;;;;;;;2.20;0.98;;;19.70;58.40;21.70;94231.00;;;;10430208;28;45821;-58
2022/09/04 16:37:08;;;;;;;0.90;0.80;;;19.70;58.50;21.70;94223.00;;;;10430171;28;45501;-58
2022/09/04 16:42:37;;;;;;;1.58;0.90;;;19.70;58.50;21.70;94232.00;;;;10453349;28;46077;-57
2022/09/04 16:48:09;;;;;;;1.30;0.90;;;19.70;58.70;21.70;94227.00;;;;10452742;28;45564;-58
2022/09/04 16:53:39;;;;;;;1.40;0.70;;;19.60;58.80;21.60;94233.00;;;;10428997;28;45153;-57
2022/09/04 16:59:18;;;;;;;1.38;0.88;;;19.60;58.80;21.60;94245.00;;;;10428834;28;45241;-57
2022/09/04 17:04:47;;;;;;;2.25;0.88;;;19.50;59.00;21.60;94210.00;;;;10441294;28;45263;-57
2022/09/04 17:10:26;;;;;;;0.65;0.60;;;19.50;59.10;21.60;94239.00;;;;10428574;28;45183;-57
2022/09/04 17:15:56;;;;;;;1.40;0.80;;;19.50;59.10;21.50;94233.00;;;;10459059;28;45750;-58
2022/09/04 17:27:13;;;;;;;1.05;0.70;;;19.40;59.30;21.50;94253.00;;;;10465747;28;45182;-57
2022/09/04 17:32:42;;;;;;;1.00;0.77;;;19.40;59.40;21.50;94243.00;;;;10445443;28;45769;-57
2022/09/04 17:38:20;;;;;;;1.02;0.70;;;19.40;59.30;21.50;94242.00;;;;10444119;28;45483;-57
2022/09/04 17:44:04;;;;;;;1.58;0.88;;;19.40;59.40;21.50;94234.00;;;;10461458;28;45133;-58
2022/09/04 17:49:30;;;;;;;0.80;0.60;;;19.40;59.30;21.50;94248.00;;;;10453411;28;45322;-57
2022/09/04 17:54:57;;;;;;;0.98;0.63;;;19.40;59.30;21.50;94249.00;;;;10430297;28;45202;-59
2022/09/04 18:00:22;;;;;;;2.40;0.90;;;19.40;59.30;21.40;94253.00;;;;10442399;28;45501;-58
2022/09/04 18:05:50;;;;;;;2.13;0.90;;;19.40;59.30;21.40;94262.00;;;;10465903;28;45269;-58
2022/09/04 18:11:21;;;;;;;1.42;0.85;;;19.30;59.10;21.40;94261.00;;;;10438299;28;45683;-57
2022/09/04 18:17:01;;;;;;;1.38;0.90;;;19.30;59.10;21.40;94264.00;;;;10443242;28;45556;-58
2022/09/04 18:22:27;;;;;;;1.75;1.00;;;19.30;59.00;21.40;94256.00;;;;10446169;28;46164;-57
2022/09/04 18:27:58;;;;;;;1.35;0.90;;;19.30;59.60;21.30;94265.00;;;;10444993;28;45251;-56
2022/09/04 18:33:25;;;;;;;1.77;0.80;;;19.20;58.90;21.30;94265.00;;;;10430909;28;45584;-57
2022/09/04 18:38:59;;;;;;;1.35;0.93;;;19.20;59.00;21.30;94282.00;;;;10446248;28;45190;-57
2022/09/04 18:44:27;;;;;;;1.40;0.98;;;19.10;59.50;21.20;94296.00;;;;10466726;28;45167;-58
2022/09/04 18:49:56;;;;;;;1.40;1.00;;;19.10;58.80;21.20;94284.00;;;;10439028;28;45194;-57
2022/09/04 18:55:22;;;;;;;2.45;0.90;;;19.10;59.70;21.20;94297.00;;;;10433499;28;45448;-57
2022/09/04 19:00:51;;;;;;;3.20;1.20;;;19.00;59.00;21.20;94292.00;;;;10446526;28;45189;-58
2022/09/04 19:06:15;;;;;;;0.70;0.70;;;19.00;59.00;21.20;94299.00;;;;10442288;28;45275;-58
2022/09/04 19:11:43;;;;;;;2.55;1.02;;;19.00;59.00;21.10;94302.00;;;;10433018;28;45909;-57
2022/09/04 19:17:13;;;;;;;3.20;1.15;;;19.00;59.00;21.10;94306.00;;;;10442322;28;45643;-56
2022/09/04 19:22:39;;;;;;;1.08;0.80;;;19.00;59.10;21.10;94303.00;;;;10436231;28;45501;-57
2022/09/04 19:28:07;;;;;;;1.42;0.90;;;19.00;59.10;21.10;94305.00;;;;10440805;28;45456;-57
2022/09/04 19:33:38;;;;;;;1.58;1.02;;;19.00;59.10;21.10;94307.00;;;;10440833;28;45207;-57
2022/09/04 19:39:18;;;;;;;1.13;0.70;;;18.90;59.00;21.10;94284.00;;;;10427677;28;45785;-57
2022/09/04 19:44:49;;;;;;;2.53;0.80;;;18.90;59.00;21.00;94283.00;;;;10430927;28;45770;-56
2022/09/04 19:50:17;;;;;;;1.00;0.80;;;18.90;59.10;21.00;94277.00;;;;10431556;28;45273;-56
2022/09/04 19:55:44;;;;;;;1.38;0.90;;;18.90;59.10;21.00;94304.00;;;;10431193;28;45889;-57
2022/09/04 20:01:15;;;;;;;1.43;0.93;;;18.90;59.10;21.00;94298.00;;;;10455333;28;45249;-57
2022/09/04 20:06:46;;;;;;;1.63;0.90;;;18.90;59.20;21.00;94301.00;;;;10430230;28;45306;-58
2022/09/04 20:12:19;;;;;;;1.25;0.88;;;18.90;59.10;21.00;94297.00;;;;10442939;28;45127;-58
2022/09/04 20:18:07;;;;;;;1.02;0.90;;;18.90;59.20;21.00;94303.00;;;;10439032;28;46017;-57
2022/09/04 20:23:34;;;;;;;1.25;0.90;;;18.80;59.30;21.00;94295.00;;;;10428788;28;45874;-57
2022/09/04 20:29:10;;;;;;;0.95;0.80;;;18.90;60.00;21.00;94303.00;;;;10460365;28;45778;-57
2022/09/04 20:34:43;;;;;;;0.93;0.75;;;18.80;59.30;20.90;94293.00;;;;10461114;28;45085;-57
2022/09/04 20:40:24;;;;;;;1.42;0.80;;;18.80;59.40;20.90;94316.00;;;;10433832;28;45174;-56
2022/09/04 20:45:53;;;;;;;0.80;0.77;;;18.80;59.40;20.90;94298.00;;;;10470587;28;45091;-56
2022/09/04 20:51:19;;;;;;;1.63;0.80;;;18.80;59.50;20.90;94308.00;;;;10429280;28;45917;-57
2022/09/04 20:56:55;;;;;;;1.63;0.90;;;18.80;59.50;20.90;94322.00;;;;10428791;28;45843;-56
2022/09/04 21:02:35;;;;;;;0.88;0.77;;;18.80;59.60;20.90;94311.00;;;;10449936;28;45216;-58
2022/09/04 21:08:05;;;;;;;2.60;0.70;;;18.70;59.60;20.90;94336.00;;;;10428327;28;45352;-58
2022/09/04 21:13:36;;;;;;;1.20;0.70;;;18.80;59.60;20.90;94317.00;;;;10427436;28;45979;-57
2022/09/04 21:19:15;;;;;;;1.45;0.90;;;18.70;59.60;20.80;94339.00;;;;10458853;28;45243;-55
2022/09/04 21:25:06;;;;;;;1.20;0.90;;;18.70;59.60;20.80;94332.00;;;;10469707;28;45179;-57
2022/09/04 21:30:52;;;;;;;1.40;0.70;;;18.70;59.50;20.80;94335.00;;;;10466993;28;45245;-58
2022/09/04 21:36:24;;;;;;;1.33;0.90;;;18.80;59.40;20.80;94325.00;;;;10441569;28;45304;-56
2022/09/04 21:42:00;;;;;;;1.50;0.90;;;18.70;59.50;20.80;94348.00;;;;10443855;28;45169;-58
2022/09/04 21:47:45;;;;;;;0.68;0.60;;;18.70;59.40;20.80;94342.00;;;;10453278;28;45114;-57
2022/09/04 21:54:11;;;;;;;2.80;0.73;;;18.70;59.40;20.80;94346.00;;;;10458697;28;45237;-56
2022/09/04 22:00:16;;;;;;;1.15;0.77;;;18.70;59.40;20.70;94355.00;;;;10468856;28;45703;-58
2022/09/04 22:05:48;;;;;;;1.05;0.68;;;18.70;59.30;20.70;94341.00;;;;10404729;28;45844;-56
2022/09/04 22:11:21;;;;;;;1.10;0.80;;;18.60;59.20;20.70;94332.00;;;;10468230;28;45797;-58
2022/09/04 22:17:04;;;;;;;1.75;1.17;;;18.60;59.30;20.70;94350.00;;;;10469472;28;45804;-58
2022/09/04 22:23:17;;;;;;;0.70;0.70;;;18.60;59.20;20.70;94362.00;;;;10470905;28;45691;-61
2022/09/04 22:29:09;;;;;;;2.35;0.70;;;18.60;59.00;20.70;94373.00;;;;10404787;28;45113;-57
2022/09/04 22:35:19;;;;;;;1.23;0.80;;;18.60;59.00;20.70;94354.00;;;;10465205;28;45134;-58
2022/09/04 22:40:57;;;;;;;1.38;0.82;;;18.60;58.90;20.70;94367.00;;;;10457680;28;45181;-58
2022/09/04 22:46:47;;;;;;;1.27;0.70;;;18.60;59.00;20.70;94352.00;;;;10470570;28;45129;-56
2022/09/04 22:52:43;;;;;;;1.70;0.70;;;18.60;58.80;20.70;94372.00;;;;10433343;28;45171;-58
2022/09/04 22:58:36;;;;;;;0.95;0.70;;;18.60;58.80;20.70;94363.00;;;;10432844;28;45209;-56
2022/09/04 23:04:22;;;;;;;1.77;0.70;;;18.50;58.60;20.70;94375.00;;;;10433206;28;45230;-56
2022/09/04 23:10:02;;;;;;;1.33;0.70;;;18.60;58.70;20.60;94385.00;;;;10467071;28;45182;-58
2022/09/04 23:15:39;;;;;;;0.82;0.77;;;18.50;58.60;20.60;94374.00;;;;10462206;28;45151;-58
2022/09/04 23:21:15;;;;;;;1.00;0.70;;;18.50;58.70;20.60;94383.00;;;;10450000;28;45207;-59
2022/09/04 23:26:57;;;;;;;0.75;0.65;;;18.50;58.70;20.60;94371.00;;;;10431279;28;45299;-58
2022/09/04 23:32:42;;;;;;;1.17;0.70;;;18.50;58.50;20.60;94375.00;;;;10465168;28;45431;-57
2022/09/04 23:38:47;;;;;;;1.38;0.80;;;18.50;58.60;20.60;94383.00;;;;10474190;28;45518;-57
2022/09/04 23:45:07;;;;;;;0.80;0.77;;;18.50;58.50;20.60;94374.00;;;;10473165;28;45178;-56
2022/09/04 23:50:44;;;;;;;1.58;0.63;;;18.40;58.50;20.50;94363.00;;;;10405987;28;45787;-58
2022/09/04 23:56:16;;;;;;;1.00;0.80;;;18.40;58.50;20.50;94356.00;;;;10460361;28;45338;-56
